createdAt,value
2023-04-16T00:01:13.579Z,31.15
2023-04-16T00:03:42.180Z,28.27
2023-04-16T00:06:13.060Z,32.00
2023-04-16T00:08:43.477Z,29.45
2023-04-16T00:11:13.577Z,29.67
2023-04-16T00:13:41.934Z,29.70
2023-04-16T00:16:10.658Z,30.93
2023-04-16T00:18:39.303Z,28.83
2023-04-16T00:21:08.555Z,30.77
2023-04-16T00:23:36.961Z,27.60
2023-04-16T00:26:06.077Z,32.27
2023-04-16T00:28:35.940Z,33.30
2023-04-16T00:31:06.441Z,29.30
2023-04-16T00:33:35.032Z,30.13
2023-04-16T00:36:03.561Z,27.53
2023-04-16T00:38:32.827Z,29.07
2023-04-16T00:41:01.332Z,30.77
2023-04-16T00:43:30.608Z,33.60
2023-04-16T00:46:01.037Z,31.17
2023-04-16T00:48:31.713Z,32.67
2023-04-16T00:51:01.633Z,33.93
2023-04-16T00:53:30.688Z,35.57
2023-04-16T00:56:00.027Z,33.00
2023-04-16T00:58:29.728Z,34.97
2023-04-16T01:01:00.777Z,31.23
2023-04-16T01:03:40.177Z,28.50
2023-04-16T01:06:09.388Z,28.10
2023-04-16T01:08:38.119Z,30.17
2023-04-16T01:11:06.964Z,28.57
2023-04-16T01:13:39.193Z,27.57
2023-04-16T01:16:10.639Z,27.83
2023-04-16T01:18:40.414Z,29.13
2023-04-16T01:21:10.556Z,29.17
2023-04-16T01:23:38.985Z,27.17
2023-04-16T01:26:07.298Z,28.83
2023-04-16T01:28:36.180Z,29.00
2023-04-16T01:31:04.817Z,31.00
2023-04-16T01:33:56.168Z,32.63
2023-04-16T01:36:26.837Z,31.02
2023-04-16T01:38:55.516Z,34.37
2023-04-16T01:41:25.450Z,25.10
2023-04-16T01:43:54.160Z,28.20
2023-04-16T01:46:30.068Z,25.30
2023-04-16T01:48:58.994Z,24.33
2023-04-16T01:51:29.381Z,24.13
2023-04-16T01:53:58.366Z,24.70
2023-04-16T01:56:26.965Z,33.87
2023-04-16T01:58:55.604Z,28.20
2023-04-16T02:01:25.625Z,29.87
2023-04-16T02:03:54.427Z,30.23
2023-04-16T02:06:22.851Z,24.57
2023-04-16T02:08:52.654Z,25.80
2023-04-16T02:11:21.989Z,25.17
2023-04-16T02:13:51.262Z,25.03
2023-04-16T02:16:20.487Z,25.67
2023-04-16T02:18:52.539Z,30.77
2023-04-16T02:21:23.075Z,29.87
2023-04-16T02:23:52.977Z,30.70
2023-04-16T02:26:27.285Z,25.30
2023-04-16T02:28:59.126Z,25.90
2023-04-16T02:31:35.649Z,28.60
2023-04-16T02:34:05.517Z,28.13
2023-04-16T02:36:34.224Z,25.80
2023-04-16T02:39:04.608Z,27.67
2023-04-16T02:41:33.040Z,27.00
2023-04-16T02:44:01.466Z,28.27
2023-04-16T02:46:29.942Z,26.57
2023-04-16T02:48:58.318Z,30.10
2023-04-16T02:51:27.664Z,28.67
2023-04-16T02:53:55.987Z,25.87
2023-04-16T02:56:25.661Z,31.23
2023-04-16T02:58:54.019Z,29.17
2023-04-16T03:01:22.492Z,28.63
2023-04-16T03:03:50.775Z,28.30
2023-04-16T03:06:19.075Z,28.97
2023-04-16T03:08:47.400Z,29.90
2023-04-16T03:11:15.714Z,29.80
2023-04-16T03:13:45.558Z,33.07
2023-04-16T03:16:13.950Z,30.30
2023-04-16T03:18:42.298Z,30.30
2023-04-16T03:21:11.581Z,29.93
2023-04-16T03:23:39.960Z,32.00
2023-04-16T03:26:08.249Z,33.38
2023-04-16T03:28:36.656Z,29.90
2023-04-16T03:31:06.766Z,30.92
2023-04-16T03:33:35.858Z,30.08
2023-04-16T03:36:05.465Z,32.00
2023-04-16T03:38:33.988Z,29.37
2023-04-16T03:41:02.369Z,30.53
2023-04-16T03:43:33.808Z,31.23
2023-04-16T03:46:02.219Z,33.70
2023-04-16T03:48:32.085Z,30.40
2023-04-16T03:51:00.655Z,32.43
2023-04-16T03:53:29.771Z,32.53
2023-04-16T03:55:58.158Z,27.67
2023-04-16T03:58:26.640Z,31.27
2023-04-16T04:00:55.924Z,32.03
2023-04-16T04:03:26.139Z,30.67
2023-04-16T04:05:57.214Z,30.77
2023-04-16T04:08:29.538Z,29.10
2023-04-16T04:10:57.875Z,28.60
2023-04-16T04:13:28.007Z,30.77
2023-04-16T04:15:56.341Z,30.83
2023-04-16T04:18:25.567Z,29.80
2023-04-16T04:20:53.901Z,32.42
2023-04-16T04:23:27.624Z,26.63
2023-04-16T04:25:56.085Z,27.20
2023-04-16T04:28:24.538Z,29.17
2023-04-16T04:30:52.847Z,28.50
2023-04-16T04:33:21.298Z,27.70
2023-04-16T04:35:49.824Z,31.37
2023-04-16T04:38:20.072Z,29.63
2023-04-16T04:40:50.577Z,27.43
2023-04-16T04:43:20.556Z,28.60
2023-04-16T04:45:49.603Z,32.80
2023-04-16T04:48:19.010Z,30.63
2023-04-16T04:50:48.323Z,29.67
2023-04-16T04:53:16.626Z,28.63
2023-04-16T04:55:44.939Z,28.48
2023-04-16T04:58:14.570Z,32.73
2023-04-16T05:00:44.518Z,27.47
2023-04-16T05:03:13.775Z,29.10
2023-04-16T05:05:42.377Z,28.83
2023-04-16T05:08:10.757Z,33.95
2023-04-16T05:10:39.077Z,30.90
2023-04-16T05:13:07.509Z,30.90
2023-04-16T05:15:37.756Z,32.45
2023-04-16T05:18:06.123Z,28.80
2023-04-16T05:20:34.500Z,27.07
2023-04-16T05:23:02.879Z,30.07
2023-04-16T05:25:31.258Z,31.23
2023-04-16T05:27:59.623Z,27.63
2023-04-16T05:30:27.931Z,29.33
2023-04-16T05:32:57.681Z,31.08
2023-04-16T05:35:26.655Z,31.10
2023-04-16T05:37:55.111Z,30.02
2023-04-16T05:40:23.484Z,28.70
2023-04-16T05:42:51.778Z,33.07
2023-04-16T05:45:20.250Z,31.57
2023-04-16T05:47:48.695Z,30.85
2023-04-16T05:50:18.558Z,31.20
2023-04-16T05:52:46.907Z,31.90
2023-04-16T05:55:15.366Z,28.97
2023-04-16T05:57:43.617Z,31.93
2023-04-16T06:00:12.649Z,31.40
2023-04-16T06:02:41.218Z,33.50
2023-04-16T06:05:10.505Z,33.50
2023-04-16T06:07:40.491Z,29.58
2023-04-16T06:10:09.672Z,30.17
2023-04-16T06:12:38.074Z,30.47
2023-04-16T06:15:08.042Z,29.10
2023-04-16T06:17:36.366Z,31.90
2023-04-16T06:20:05.918Z,28.87
2023-04-16T06:22:34.405Z,30.00
2023-04-16T06:25:04.279Z,35.30
2023-04-16T06:27:32.655Z,30.85
2023-04-16T06:30:01.055Z,31.60
2023-04-16T06:32:29.570Z,29.47
2023-04-16T06:34:58.693Z,30.27
2023-04-16T06:37:27.148Z,30.93
2023-04-16T06:39:55.531Z,27.73
2023-04-16T06:42:25.401Z,29.67
2023-04-16T06:44:53.717Z,29.48
2023-04-16T06:47:22.066Z,33.17
2023-04-16T06:49:50.451Z,31.53
2023-04-16T06:52:19.012Z,32.30
2023-04-16T06:54:47.297Z,27.02
2023-04-16T06:57:16.054Z,27.95
2023-04-16T06:59:45.782Z,30.70
2023-04-16T07:02:14.358Z,26.67
2023-04-16T07:04:42.868Z,28.02
2023-04-16T07:07:11.319Z,29.25
2023-04-16T07:09:39.799Z,30.53
2023-04-16T07:12:08.593Z,31.97
2023-04-16T07:14:36.935Z,26.67
2023-04-16T07:17:06.640Z,29.13
2023-04-16T07:19:35.501Z,27.17
2023-04-16T07:22:03.990Z,30.10
2023-04-16T07:24:32.550Z,28.73
2023-04-16T07:27:00.922Z,25.10
2023-04-16T07:29:29.324Z,31.15
2023-04-16T07:31:58.355Z,27.00
2023-04-16T07:34:28.163Z,26.77
2023-04-16T07:36:56.745Z,30.90
2023-04-16T07:39:25.261Z,27.73
2023-04-16T07:41:53.573Z,27.33
2023-04-16T07:44:21.869Z,27.90
2023-04-16T07:46:50.308Z,25.15
2023-04-16T07:49:18.792Z,26.02
2023-04-16T07:51:48.432Z,28.70
2023-04-16T07:54:16.846Z,26.23
2023-04-16T07:56:45.325Z,26.00
2023-04-16T07:59:23.006Z,29.48
2023-04-16T08:01:54.775Z,27.40
2023-04-16T08:04:26.301Z,27.38
2023-04-16T08:06:56.421Z,25.75
2023-04-16T08:09:28.242Z,26.55
2023-04-16T08:11:56.875Z,27.17
2023-04-16T08:14:25.244Z,26.20
2023-04-16T08:16:53.550Z,25.98
2023-04-16T08:19:22.018Z,26.83
2023-04-16T08:21:50.310Z,21.90
2023-04-16T08:24:20.074Z,26.75
2023-04-16T08:26:48.558Z,20.58
2023-04-16T08:29:16.863Z,22.70
2023-04-16T08:31:45.585Z,23.55
2023-04-16T08:34:14.280Z,23.60
2023-04-16T08:36:42.733Z,22.67
2023-04-16T08:39:11.341Z,25.05
2023-04-16T08:41:46.364Z,18.80
2023-04-16T08:44:22.509Z,24.52
2023-04-16T08:46:54.774Z,26.55
2023-04-16T08:49:23.612Z,21.88
2023-04-16T08:51:53.957Z,23.48
2023-04-16T08:54:40.384Z,23.65
2023-04-16T08:57:12.487Z,22.73
2023-04-16T08:59:46.774Z,21.60
2023-04-16T09:02:16.303Z,24.88
2023-04-16T09:04:46.164Z,21.77
2023-04-16T09:07:15.797Z,24.52
2023-04-16T09:09:47.048Z,21.98
2023-04-16T09:12:18.335Z,21.38
2023-04-16T09:14:50.915Z,20.08
2023-04-16T09:17:20.287Z,19.92
2023-04-16T09:19:48.703Z,21.27
2023-04-16T09:22:17.864Z,22.33
2023-04-16T09:24:46.267Z,20.77
2023-04-16T09:27:16.528Z,22.80
2023-04-16T09:29:44.968Z,24.33
2023-04-16T09:32:13.741Z,23.48
2023-04-16T09:34:57.179Z,21.27
2023-04-16T09:37:26.601Z,20.23
2023-04-16T09:39:57.726Z,21.90
2023-04-16T09:42:29.425Z,21.80
2023-04-16T09:45:00.333Z,23.77
2023-04-16T09:47:41.810Z,20.98
2023-04-16T09:50:17.702Z,20.98
2023-04-16T09:52:50.484Z,22.67
2023-04-16T09:55:24.855Z,20.85
2023-04-16T09:58:02.631Z,21.67
2023-04-16T10:00:32.255Z,22.48
2023-04-16T10:03:07.698Z,27.27
2023-04-16T10:05:36.435Z,19.58
2023-04-16T10:08:12.635Z,20.95
2023-04-16T10:10:42.124Z,21.92
2023-04-16T10:13:12.714Z,20.38
2023-04-16T10:15:42.176Z,21.52
2023-04-16T10:18:11.484Z,22.23
2023-04-16T10:20:40.296Z,21.15
2023-04-16T10:23:09.090Z,19.58
2023-04-16T10:25:39.688Z,23.30
2023-04-16T10:28:11.113Z,20.73
2023-04-16T10:30:42.295Z,21.83
2023-04-16T10:33:11.447Z,21.17
2023-04-16T10:35:41.411Z,23.60
2023-04-16T10:38:27.801Z,20.60
2023-04-16T10:41:05.195Z,21.65
2023-04-16T10:43:40.980Z,20.90
2023-04-16T10:46:26.387Z,22.63
2023-04-16T10:48:57.118Z,23.52
2023-04-16T10:51:29.303Z,22.02
2023-04-16T10:54:03.595Z,20.88
2023-04-16T10:56:34.738Z,22.05
2023-04-16T10:59:07.005Z,20.33
2023-04-16T11:01:37.067Z,22.83
2023-04-16T11:04:45.727Z,21.75
2023-04-16T11:07:20.476Z,21.35
2023-04-16T11:09:56.100Z,22.92
2023-04-16T11:12:27.744Z,22.13
2023-04-16T11:15:02.887Z,26.02
2023-04-16T11:17:38.180Z,22.55
2023-04-16T11:20:19.089Z,23.33
2023-04-16T11:22:49.729Z,23.15
2023-04-16T11:25:22.542Z,19.80
2023-04-16T11:27:51.143Z,22.35
2023-04-16T11:30:29.989Z,25.00
2023-04-16T11:32:58.657Z,23.52
2023-04-16T11:35:27.238Z,25.27
2023-04-16T11:37:58.632Z,28.42
2023-04-16T11:40:30.916Z,22.08
2023-04-16T11:43:04.031Z,21.45
2023-04-16T11:45:33.726Z,21.10
2023-04-16T11:48:02.053Z,21.42
2023-04-16T11:50:30.700Z,26.33
2023-04-16T11:53:06.492Z,22.63
2023-04-16T11:55:45.451Z,21.63
2023-04-16T11:58:15.784Z,23.25
2023-04-16T12:00:46.374Z,23.33
2023-04-16T12:03:14.883Z,25.27
2023-04-16T12:05:43.333Z,21.58
2023-04-16T12:08:13.490Z,23.35
2023-04-16T12:10:56.023Z,24.65
2023-04-16T12:13:24.523Z,21.50
2023-04-16T12:15:56.708Z,22.40
2023-04-16T12:18:27.333Z,23.63
2023-04-16T12:20:55.997Z,24.67
2023-04-16T12:23:26.968Z,20.30
2023-04-16T12:25:55.892Z,23.50
2023-04-16T12:28:32.301Z,20.73
2023-04-16T12:31:02.911Z,19.88
2023-04-16T12:33:31.903Z,22.45
2023-04-16T12:36:01.565Z,22.17
2023-04-16T12:38:30.545Z,20.55
2023-04-16T12:40:58.900Z,21.70
2023-04-16T12:43:27.521Z,22.17
2023-04-16T12:45:56.158Z,20.15
2023-04-16T12:48:26.007Z,21.13
2023-04-16T12:50:55.791Z,21.60
2023-04-16T12:53:24.220Z,22.00
2023-04-16T12:55:52.510Z,19.17
2023-04-16T12:58:20.805Z,21.50
2023-04-16T13:00:49.286Z,21.45
2023-04-16T13:03:17.823Z,23.27
2023-04-16T13:05:47.984Z,22.17
2023-04-16T13:08:16.704Z,19.55
2023-04-16T13:10:45.130Z,19.65
2023-04-16T13:13:13.438Z,20.13
2023-04-16T13:15:41.726Z,20.90
2023-04-16T13:18:09.987Z,20.20
2023-04-16T13:20:38.572Z,21.35
2023-04-16T13:23:08.641Z,21.35
2023-04-16T13:25:36.985Z,21.65
2023-04-16T13:28:05.452Z,21.13
2023-04-16T13:30:34.338Z,21.02
2023-04-16T13:33:02.904Z,22.92
2023-04-16T13:35:31.955Z,25.77
2023-04-16T13:38:00.340Z,20.70
2023-04-16T13:40:30.274Z,24.33
2023-04-16T13:42:58.569Z,21.27
2023-04-16T13:45:27.868Z,23.25
2023-04-16T13:47:56.693Z,21.50
2023-04-16T13:50:25.095Z,22.48
2023-04-16T13:52:53.396Z,21.50
2023-04-16T13:55:21.731Z,24.75
2023-04-16T13:57:53.162Z,23.67
2023-04-16T14:00:21.716Z,24.30
2023-04-16T14:02:50.272Z,22.95
2023-04-16T14:05:19.373Z,21.45
2023-04-16T14:07:47.826Z,21.05
2023-04-16T14:10:16.244Z,19.38
2023-04-16T14:12:45.018Z,21.98
2023-04-16T14:15:15.677Z,23.30
2023-04-16T14:17:44.625Z,22.70
2023-04-16T14:20:15.654Z,23.20
2023-04-16T14:22:44.859Z,27.20
2023-04-16T14:25:13.651Z,24.50
2023-04-16T14:27:42.301Z,28.60
2023-04-16T14:30:11.512Z,24.65
2023-04-16T14:32:41.282Z,22.83
2023-04-16T14:35:10.944Z,22.30
2023-04-16T14:37:39.426Z,24.38
2023-04-16T14:40:09.818Z,23.70
2023-04-16T14:42:38.732Z,23.00
2023-04-16T14:45:09.095Z,22.23
2023-04-16T14:47:45.500Z,25.85
2023-04-16T14:50:16.133Z,24.58
2023-04-16T14:52:44.531Z,23.08
2023-04-16T14:55:13.066Z,25.75
2023-04-16T14:57:41.599Z,22.67
2023-04-16T15:00:11.941Z,23.13
2023-04-16T15:02:40.675Z,22.90
2023-04-16T15:05:10.829Z,22.17
2023-04-16T15:07:40.801Z,29.38
2023-04-16T15:10:12.547Z,24.58
2023-04-16T15:12:41.161Z,24.45
2023-04-16T15:15:11.345Z,23.70
2023-04-16T15:17:40.226Z,21.98
2023-04-16T15:20:11.026Z,21.98
2023-04-16T15:22:42.064Z,23.33
2023-04-16T15:25:10.994Z,20.83
2023-04-16T15:27:39.495Z,25.52
2023-04-16T15:30:09.566Z,24.55
2023-04-16T15:32:38.069Z,23.95
2023-04-16T15:35:08.268Z,22.95
2023-04-16T15:37:39.806Z,23.38
2023-04-16T15:40:09.355Z,23.00
2023-04-16T15:42:37.891Z,23.38
2023-04-16T15:45:07.473Z,22.67
2023-04-16T15:47:37.547Z,22.13
2023-04-16T15:50:08.462Z,23.27
2023-04-16T15:52:38.449Z,22.40
2023-04-16T15:55:09.209Z,20.75
2023-04-16T15:57:37.719Z,24.13
2023-04-16T16:00:13.471Z,24.55
2023-04-16T16:02:43.022Z,22.40
2023-04-16T16:05:12.857Z,23.90
2023-04-16T16:07:41.812Z,24.98
2023-04-16T16:10:13.141Z,24.10
2023-04-16T16:12:42.309Z,24.48
2023-04-16T16:15:11.899Z,22.70
2023-04-16T16:17:40.805Z,22.65
2023-04-16T16:20:10.908Z,21.42
2023-04-16T16:22:40.636Z,25.38
2023-04-16T16:25:11.104Z,22.48
2023-04-16T16:27:40.576Z,22.20
2023-04-16T16:30:10.731Z,23.73
2023-04-16T16:32:40.832Z,21.80
2023-04-16T16:35:10.910Z,22.70
2023-04-16T16:37:39.530Z,24.80
2023-04-16T16:40:09.411Z,24.50
2023-04-16T16:42:39.253Z,24.48
2023-04-16T16:45:09.190Z,26.08
2023-04-16T16:47:39.184Z,22.77
2023-04-16T16:50:11.339Z,23.50
2023-04-16T16:52:40.066Z,28.10
2023-04-16T16:55:11.010Z,22.90
2023-04-16T16:57:41.233Z,24.05
2023-04-16T17:00:15.080Z,25.35
2023-04-16T17:02:43.726Z,23.88
2023-04-16T17:05:12.979Z,23.17
2023-04-16T17:07:42.550Z,24.05
2023-04-16T17:10:13.327Z,24.17
2023-04-16T17:12:43.190Z,26.25
2023-04-16T17:15:12.676Z,23.15
2023-04-16T17:17:41.228Z,24.38
2023-04-16T17:20:12.124Z,23.00
2023-04-16T17:22:41.196Z,27.67
2023-04-16T17:25:10.961Z,23.35
2023-04-16T17:27:39.463Z,23.73
2023-04-16T17:30:10.926Z,22.70
2023-04-16T17:32:39.339Z,22.65
2023-04-16T17:35:09.382Z,23.02
2023-04-16T17:37:37.815Z,21.48
2023-04-16T17:40:09.975Z,21.88
2023-04-16T17:42:39.693Z,21.33
2023-04-16T17:45:10.645Z,23.83
2023-04-16T17:47:39.249Z,33.47
2023-04-16T17:50:09.549Z,25.60
2023-04-16T17:52:38.687Z,25.77
2023-04-16T17:55:08.082Z,24.52
2023-04-16T17:57:36.624Z,27.23
2023-04-16T18:00:10.211Z,23.02
2023-04-16T18:02:43.785Z,27.70
2023-04-16T18:05:13.309Z,22.23
2023-04-16T18:07:43.588Z,23.08
2023-04-16T18:10:12.183Z,21.63
2023-04-16T18:12:40.556Z,26.27
2023-04-16T18:15:12.150Z,24.33
2023-04-16T18:17:42.013Z,24.33
2023-04-16T18:20:12.573Z,28.65
2023-04-16T18:22:40.924Z,25.95
2023-04-16T18:25:10.072Z,25.63
2023-04-16T18:27:38.715Z,29.13
2023-04-16T18:30:19.568Z,24.40
2023-04-16T18:33:11.573Z,22.65
2023-04-16T18:35:41.643Z,25.90
2023-04-16T18:38:10.244Z,24.67
2023-04-16T18:40:39.015Z,26.17
2023-04-16T18:43:07.553Z,25.40
2023-04-16T18:45:36.065Z,26.80
2023-04-16T18:48:06.367Z,27.58
2023-04-16T18:50:34.871Z,25.30
2023-04-16T18:53:03.343Z,22.55
2023-04-16T18:55:31.780Z,24.88
2023-04-16T18:58:00.265Z,27.80
2023-04-16T19:00:29.072Z,28.08
2023-04-16T19:02:57.626Z,26.88
2023-04-16T19:05:27.494Z,26.50
2023-04-16T19:07:55.861Z,26.35
2023-04-16T19:10:24.289Z,26.35
2023-04-16T19:12:52.770Z,26.70
2023-04-16T19:15:21.462Z,25.08
2023-04-16T19:17:49.924Z,25.65
2023-04-16T19:20:18.620Z,23.80
2023-04-16T19:22:48.497Z,30.15
2023-04-16T19:25:16.961Z,23.83
2023-04-16T19:27:45.282Z,23.75
2023-04-16T19:30:14.735Z,25.80
2023-04-16T19:32:43.282Z,27.35
2023-04-16T19:35:12.668Z,26.55
2023-04-16T19:37:41.145Z,28.98
2023-04-16T19:40:12.183Z,24.33
2023-04-16T19:42:40.937Z,27.75
2023-04-16T19:45:10.020Z,25.98
2023-04-16T19:47:38.548Z,28.52
2023-04-16T19:50:09.585Z,26.98
2023-04-16T19:52:38.978Z,26.35
2023-04-16T19:55:10.491Z,26.40
2023-04-16T19:57:38.924Z,27.00
2023-04-16T20:00:11.232Z,28.35
2023-04-16T20:02:39.610Z,27.88
2023-04-16T20:05:09.111Z,28.90
2023-04-16T20:07:37.455Z,28.77
2023-04-16T20:10:07.071Z,28.25
2023-04-16T20:12:37.771Z,28.42
2023-04-16T20:15:07.677Z,28.48
2023-04-16T20:17:36.183Z,29.33
2023-04-16T20:20:09.846Z,27.17
2023-04-16T20:22:38.466Z,27.08
2023-04-16T20:25:08.970Z,26.48
2023-04-16T20:27:38.726Z,29.98
2023-04-16T20:30:08.800Z,27.67
2023-04-16T20:32:37.810Z,29.42
2023-04-16T20:35:10.611Z,27.77
2023-04-16T20:37:42.010Z,30.40
2023-04-16T20:40:13.738Z,27.98
2023-04-16T20:42:46.232Z,28.10
2023-04-16T20:45:16.888Z,32.58
2023-04-16T20:47:45.342Z,30.38
2023-04-16T20:50:13.821Z,31.10
2023-04-16T20:52:43.068Z,27.20
2023-04-16T20:55:11.526Z,29.55
2023-04-16T20:57:39.837Z,31.23
2023-04-16T21:00:12.028Z,27.63
2023-04-16T21:02:40.796Z,29.42
2023-04-16T21:05:13.647Z,28.95
2023-04-16T21:07:42.815Z,31.48
2023-04-16T21:10:11.966Z,30.52
2023-04-16T21:12:40.360Z,30.15
2023-04-16T21:15:11.298Z,32.45
2023-04-16T21:17:39.647Z,29.75
2023-04-16T21:20:10.680Z,25.38
2023-04-16T21:22:39.008Z,27.15
2023-04-16T21:25:08.895Z,28.52
2023-04-16T21:27:37.169Z,29.10
2023-04-16T21:30:06.725Z,28.83
2023-04-16T21:32:36.403Z,28.55
2023-04-16T21:35:05.698Z,26.60
2023-04-16T21:37:34.260Z,25.75
2023-04-16T21:40:03.186Z,30.33
2023-04-16T21:42:32.453Z,33.05
2023-04-16T21:45:00.884Z,25.23
2023-04-16T21:47:29.384Z,29.85
2023-04-16T21:49:59.116Z,27.00
2023-04-16T21:52:27.345Z,28.38
2023-04-16T21:54:55.630Z,28.45
2023-04-16T21:57:23.890Z,29.10
2023-04-16T21:59:52.212Z,25.88
2023-04-16T22:02:20.582Z,30.10
2023-04-16T22:04:49.068Z,30.17
2023-04-16T22:07:20.650Z,29.23
2023-04-16T22:09:49.023Z,28.27
2023-04-16T22:12:17.348Z,29.38
2023-04-16T22:14:59.548Z,27.92
2023-04-16T22:17:30.605Z,29.27
2023-04-16T22:20:00.502Z,28.75
2023-04-16T22:22:30.396Z,33.28
2023-04-16T22:24:58.683Z,27.98
2023-04-16T22:27:27.247Z,26.38
2023-04-16T22:29:55.790Z,28.65
2023-04-16T22:32:24.272Z,28.75
2023-04-16T22:34:53.270Z,28.15
2023-04-16T22:37:22.914Z,27.92
2023-04-16T22:39:52.560Z,28.92
2023-04-16T22:42:21.467Z,35.90
2023-04-16T22:44:49.756Z,28.80
2023-04-16T22:47:18.251Z,28.95
2023-04-16T22:49:47.332Z,29.33
2023-04-16T22:52:15.667Z,30.88
2023-04-16T22:54:44.080Z,30.77
2023-04-16T22:57:14.293Z,30.20
2023-04-16T22:59:42.535Z,29.95
2023-04-16T23:02:10.887Z,31.90
2023-04-16T23:04:39.245Z,31.42
2023-04-16T23:07:07.549Z,28.77
2023-04-16T23:09:36.131Z,32.50
2023-04-16T23:12:04.770Z,27.23
2023-04-16T23:14:34.970Z,30.92
2023-04-16T23:17:03.387Z,30.20
2023-04-16T23:19:32.069Z,30.85
2023-04-16T23:22:00.329Z,31.48
2023-04-16T23:24:28.556Z,27.90
2023-04-16T23:26:57.876Z,29.33
2023-04-16T23:29:26.250Z,30.60
2023-04-16T23:31:58.217Z,32.30
2023-04-16T23:34:26.500Z,30.67
2023-04-16T23:36:54.808Z,30.88
2023-04-16T23:39:23.344Z,32.75
2023-04-16T23:41:51.588Z,34.65
2023-04-16T23:44:19.885Z,29.15
2023-04-16T23:46:48.269Z,31.83
2023-04-16T23:49:17.903Z,31.73
2023-04-16T23:51:46.181Z,30.52
2023-04-16T23:54:14.747Z,31.50
2023-04-16T23:56:43.103Z,32.90
2023-04-16T23:59:14.565Z,33.28
